Time;durP1;ratioP1;P1;durP2;ratioP2;P2;SDS_P1;SDS_P2;PMS_P1;PMS_P2;Temp;Humidity;BMP_temperature;BMP_pressure;BME280_temperature;BME280_humidity;BME280_pressure;Samples;Min_cycle;Max_cycle;Signal;HPM_P1;HPM_P2
2022/05/12 00:00:35;;;;;;;14.83;4.70;;;19.20;67.10;;;;;;4960297;28;20217;-79
2022/05/12 00:03:06;;;;;;;8.93;4.63;;;19.20;67.20;;;;;;4960245;28;20200;-78
2022/05/12 00:05:34;;;;;;;12.00;4.77;;;19.20;67.30;;;;;;4962233;28;20256;-79
2022/05/12 00:08:05;;;;;;;12.00;4.60;;;19.10;67.30;;;;;;4959672;28;20212;-79
2022/05/12 00:10:33;;;;;;;8.73;4.40;;;19.10;67.40;;;;;;4959748;28;20249;-78
2022/05/12 00:13:02;;;;;;;8.87;4.37;;;19.10;67.30;;;;;;4961692;28;20229;-79
2022/05/12 00:15:33;;;;;;;10.30;5.00;;;19.00;67.60;;;;;;4958287;28;20214;-78
2022/05/12 00:18:03;;;;;;;8.30;4.80;;;19.00;67.70;;;;;;4963929;28;20273;-79
2022/05/12 00:20:34;;;;;;;8.60;4.40;;;19.00;67.70;;;;;;4960846;28;20225;-79
2022/05/12 00:23:16;;;;;;;11.27;5.10;;;18.90;67.80;;;;;;4956520;28;20198;-77
2022/05/12 00:25:47;;;;;;;12.70;5.53;;;18.90;67.90;;;;;;4956181;28;20194;-78
2022/05/12 00:28:17;;;;;;;13.50;5.47;;;18.90;67.90;;;;;;4964218;28;20284;-78
2022/05/12 00:30:47;;;;;;;13.35;6.90;;;18.80;67.70;;;;;;4959827;28;20443;-78
2022/05/12 00:33:17;;;;;;;12.47;5.60;;;18.80;68.50;;;;;;4961605;28;20245;-77
2022/05/12 00:35:46;;;;;;;11.30;5.70;;;18.80;68.40;;;;;;4960960;28;20198;-77
2022/05/12 00:38:16;;;;;;;10.97;5.57;;;18.80;68.30;;;;;;4959064;28;20202;-77
2022/05/12 00:40:47;;;;;;;13.00;6.30;;;18.80;68.30;;;;;;4958968;28;20230;-78
2022/05/12 00:43:39;;;;;;;8.80;5.83;;;18.70;68.20;;;;;;4963167;28;20282;-78
2022/05/12 00:46:10;;;;;;;13.10;5.80;;;18.70;68.30;;;;;;4958033;28;20220;-78
2022/05/12 00:48:39;;;;;;;14.00;5.77;;;18.70;68.30;;;;;;4963965;28;20256;-78
2022/05/12 00:51:09;;;;;;;14.43;6.20;;;18.70;68.30;;;;;;4962752;28;20194;-77
2022/05/12 00:53:39;;;;;;;15.37;5.63;;;18.60;68.30;;;;;;4960619;28;20864;-78
2022/05/12 00:56:11;;;;;;;13.57;5.57;;;18.60;68.30;;;;;;4961663;28;20186;-78
2022/05/12 00:58:40;;;;;;;13.07;5.77;;;18.60;68.30;;;;;;4964736;28;20194;-78
2022/05/12 01:01:10;;;;;;;13.33;5.57;;;18.50;68.20;;;;;;4963697;28;20593;-78
2022/05/12 01:03:41;;;;;;;11.67;5.67;;;18.50;68.20;;;;;;4965130;28;20192;-78
2022/05/12 01:06:11;;;;;;;8.40;5.53;;;18.50;68.30;;;;;;4967762;28;20198;-78
2022/05/12 01:08:43;;;;;;;13.63;5.70;;;18.40;68.30;;;;;;4966299;28;20217;-78
2022/05/12 01:11:14;;;;;;;10.80;5.43;;;18.40;68.40;;;;;;4963427;28;20314;-77
2022/05/12 01:13:45;;;;;;;8.33;4.90;;;18.30;68.40;;;;;;4961063;28;20707;-78
2022/05/12 01:16:33;;;;;;;9.53;5.43;;;18.30;68.40;;;;;;4966159;28;20205;-78
2022/05/12 01:19:02;;;;;;;10.50;5.00;;;18.30;68.40;;;;;;4966274;28;20617;-78
2022/05/12 01:21:30;;;;;;;8.43;4.80;;;18.30;68.30;;;;;;4965610;28;20198;-77
2022/05/12 01:24:00;;;;;;;11.23;5.40;;;18.20;68.30;;;;;;4961966;28;20198;-77
2022/05/12 01:26:28;;;;;;;10.83;5.37;;;18.20;68.30;;;;;;4963953;28;20205;-78
2022/05/12 01:28:57;;;;;;;8.07;5.00;;;18.20;68.30;;;;;;4967590;28;20201;-77
2022/05/12 01:31:25;;;;;;;10.30;4.80;;;18.10;68.20;;;;;;4965162;28;20405;-77
2022/05/12 01:33:54;;;;;;;11.97;5.30;;;18.10;68.40;;;;;;4960789;28;21530;-78
2022/05/12 01:36:23;;;;;;;11.47;5.30;;;18.00;68.70;;;;;;4961552;28;20224;-78
2022/05/12 01:38:51;;;;;;;13.83;5.17;;;18.00;68.70;;;;;;4964559;28;20202;-78
2022/05/12 01:41:21;;;;;;;11.80;5.03;;;18.00;68.80;;;;;;4959963;28;20205;-77
2022/05/12 01:43:49;;;;;;;8.50;4.97;;;18.00;68.90;;;;;;4965853;28;20201;-78
2022/05/12 01:46:18;;;;;;;9.77;5.03;;;17.90;69.50;;;;;;4958618;28;20237;-78
2022/05/12 01:48:46;;;;;;;11.13;5.40;;;17.90;68.70;;;;;;4943688;28;20190;-78
2022/05/12 01:51:15;;;;;;;10.87;4.47;;;17.90;68.60;;;;;;4945799;28;20217;-77
2022/05/12 01:53:43;;;;;;;8.90;4.87;;;17.90;68.90;;;;;;4944323;28;20310;-78
2022/05/12 01:56:13;;;;;;;14.00;6.53;;;17.90;68.90;;;;;;4943073;28;20203;-78
2022/05/12 01:58:43;;;;;;;11.23;5.13;;;17.80;68.90;;;;;;4945960;29;20202;-78
2022/05/12 02:01:12;;;;;;;11.00;5.00;;;17.80;68.90;;;;;;4945816;28;20203;-77
2022/05/12 02:03:40;;;;;;;8.93;5.07;;;17.80;68.90;;;;;;4946131;28;20834;-77
2022/05/12 02:06:09;;;;;;;9.17;5.57;;;17.80;68.90;;;;;;4941424;28;20221;-77
2022/05/12 02:08:37;;;;;;;8.77;5.07;;;17.70;68.90;;;;;;4946621;28;20206;-78
2022/05/12 02:11:05;;;;;;;13.43;5.13;;;17.70;68.90;;;;;;4941790;29;20199;-77
2022/05/12 02:13:37;;;;;;;11.40;5.47;;;17.70;68.90;;;;;;4943199;28;20211;-77
2022/05/12 02:16:07;;;;;;;8.77;5.53;;;17.70;68.90;;;;;;4947110;28;20201;-78
2022/05/12 02:18:35;;;;;;;13.07;5.37;;;17.70;68.90;;;;;;4947044;28;20294;-78
2022/05/12 02:21:04;;;;;;;8.37;4.73;;;17.70;68.90;;;;;;4944892;28;20210;-78
2022/05/12 02:23:32;;;;;;;8.33;5.17;;;17.70;68.90;;;;;;4945648;28;20261;-77
2022/05/12 02:26:01;;;;;;;13.40;5.50;;;17.70;68.90;;;;;;4944602;28;20198;-77
2022/05/12 02:28:29;;;;;;;8.50;5.10;;;17.70;68.90;;;;;;4945083;28;20256;-78
2022/05/12 02:30:57;;;;;;;9.63;5.20;;;17.70;68.90;;;;;;4945261;28;20644;-77
2022/05/12 02:33:27;;;;;;;9.10;4.90;;;17.60;68.80;;;;;;4945660;28;20802;-78
2022/05/12 02:35:56;;;;;;;22.63;11.23;;;17.60;69.20;;;;;;4940274;28;20202;-77
2022/05/12 02:38:25;;;;;;;13.40;7.90;;;17.60;69.40;;;;;;4943508;28;20206;-77
2022/05/12 02:40:53;;;;;;;18.20;9.53;;;17.50;70.10;;;;;;4943646;28;20190;-78
2022/05/12 02:43:24;;;;;;;17.83;8.33;;;17.40;69.30;;;;;;4941626;29;20198;-78
2022/05/12 02:45:55;;;;;;;14.27;7.73;;;17.50;69.40;;;;;;4944183;28;20314;-77
2022/05/12 02:48:28;;;;;;;14.37;7.60;;;17.40;69.40;;;;;;4944840;28;20199;-77
2022/05/12 02:50:57;;;;;;;18.67;7.20;;;17.40;69.40;;;;;;4937804;28;20202;-77
2022/05/12 02:53:26;;;;;;;15.60;7.67;;;17.40;69.50;;;;;;4945184;28;20230;-77
2022/05/12 02:55:58;;;;;;;21.17;7.93;;;17.40;70.10;;;;;;4943452;28;20199;-77
2022/05/12 02:58:27;;;;;;;17.63;8.13;;;17.30;70.10;;;;;;4939970;28;20616;-78
2022/05/12 03:00:56;;;;;;;14.13;6.63;;;17.30;70.00;;;;;;4943581;29;20217;-77
2022/05/12 03:03:25;;;;;;;11.30;6.10;;;17.20;70.00;;;;;;4943306;28;20242;-77
2022/05/12 03:05:56;;;;;;;19.53;7.77;;;17.20;70.10;;;;;;4941222;28;21712;-77
2022/05/12 03:08:24;;;;;;;14.13;6.77;;;17.20;70.50;;;;;;4941215;28;20705;-77
2022/05/12 03:10:53;;;;;;;16.10;6.97;;;17.20;70.40;;;;;;4940471;29;20206;-77
2022/05/12 03:13:23;;;;;;;15.43;6.97;;;17.10;70.50;;;;;;4940216;29;20226;-77
2022/05/12 03:15:52;;;;;;;14.40;5.50;;;17.10;70.50;;;;;;4945168;29;20198;-78
2022/05/12 03:18:21;;;;;;;21.00;6.60;;;17.10;71.10;;;;;;4944494;28;20205;-78
2022/05/12 03:20:49;;;;;;;11.00;5.90;;;17.10;71.30;;;;;;4939721;29;20663;-77
2022/05/12 03:23:25;;;;;;;10.40;5.40;;;17.10;71.30;;;;;;4939205;29;20230;-77
2022/05/12 03:25:54;;;;;;;12.70;5.90;;;17.00;71.40;;;;;;4930877;29;21501;-77
2022/05/12 03:28:23;;;;;;;12.70;5.83;;;17.00;71.60;;;;;;4943133;29;20206;-77
2022/05/12 03:30:51;;;;;;;14.23;5.63;;;17.00;71.90;;;;;;4949539;28;20209;-77
2022/05/12 03:33:21;;;;;;;14.17;5.47;;;16.90;71.90;;;;;;4951237;28;20265;-77
2022/05/12 03:35:50;;;;;;;20.50;5.73;;;16.90;71.90;;;;;;4944206;28;20568;-77
2022/05/12 03:38:19;;;;;;;12.90;5.70;;;16.90;72.10;;;;;;4946827;28;20844;-77
2022/05/12 03:40:48;;;;;;;15.17;6.10;;;16.90;72.20;;;;;;4944185;28;20210;-77
2022/05/12 03:45:59;;;;;;;13.50;5.97;;;16.90;72.20;;;;;;4937962;29;20198;-78
2022/05/12 03:48:28;;;;;;;16.20;5.67;;;16.90;72.40;;;;;;4937167;29;20285;-77
2022/05/12 03:50:57;;;;;;;11.97;5.67;;;16.90;72.50;;;;;;4942675;29;20202;-77
2022/05/12 03:53:26;;;;;;;10.37;5.20;;;17.00;72.70;;;;;;4944640;29;20219;-77
2022/05/12 03:55:56;;;;;;;10.83;6.03;;;17.00;73.10;;;;;;4941114;29;20203;-77
2022/05/12 03:58:24;;;;;;;13.00;5.67;;;17.00;73.30;;;;;;4941084;29;20214;-77
2022/05/12 04:00:54;;;;;;;19.60;5.97;;;17.00;73.30;;;;;;4944176;28;20207;-77
2022/05/12 04:03:23;;;;;;;12.67;5.90;;;17.00;73.70;;;;;;4944922;28;20194;-77
2022/05/12 04:05:51;;;;;;;12.13;5.93;;;17.00;73.70;;;;;;4938755;28;20846;-77
2022/05/12 04:08:19;;;;;;;14.27;5.93;;;17.00;74.00;;;;;;4938025;29;20206;-78
2022/05/12 04:10:48;;;;;;;11.67;5.20;;;17.00;73.80;;;;;;4943327;28;20603;-78
2022/05/12 04:13:18;;;;;;;14.90;5.90;;;17.00;73.80;;;;;;4942970;28;20238;-78
2022/05/12 04:15:47;;;;;;;13.13;5.33;;;17.10;73.60;;;;;;4937307;29;20206;-78
2022/05/12 04:18:15;;;;;;;15.03;4.90;;;17.10;73.50;;;;;;4943702;29;20208;-77
2022/05/12 04:20:43;;;;;;;18.13;5.97;;;17.20;73.40;;;;;;4943045;29;20198;-77
2022/05/12 04:23:12;;;;;;;13.43;5.00;;;17.20;73.30;;;;;;4940920;28;20202;-78
2022/05/12 04:25:41;;;;;;;11.17;5.70;;;17.30;73.10;;;;;;4939801;28;20992;-77
2022/05/12 04:28:09;;;;;;;11.40;5.00;;;17.30;73.20;;;;;;4942913;28;20207;-77
2022/05/12 04:30:39;;;;;;;17.57;5.73;;;17.40;73.00;;;;;;4943323;28;20201;-77
2022/05/12 04:35:54;;;;;;;15.23;5.50;;;17.50;72.70;;;;;;4942024;29;21212;-77
2022/05/12 04:38:23;;;;;;;13.27;5.30;;;17.50;72.60;;;;;;4946310;28;20206;-77
2022/05/12 04:40:52;;;;;;;11.73;5.03;;;17.60;72.60;;;;;;4945716;29;20206;-77
2022/05/12 04:43:20;;;;;;;15.10;5.10;;;17.70;72.70;;;;;;4943759;29;20206;-77
2022/05/12 04:45:50;;;;;;;14.13;5.67;;;17.70;72.50;;;;;;4941792;28;20202;-77
2022/05/12 04:48:24;;;;;;;17.42;5.85;;;17.80;72.50;;;;;;4944957;28;20457;-77
2022/05/12 04:50:53;;;;;;;15.80;4.97;;;17.90;72.60;;;;;;4948342;28;20708;-77
2022/05/12 04:53:21;;;;;;;15.47;5.70;;;17.90;72.50;;;;;;4939360;28;20199;-78
2022/05/12 04:55:49;;;;;;;10.60;6.07;;;18.00;72.30;;;;;;4945366;29;20218;-78
2022/05/12 04:58:18;;;;;;;9.93;4.43;;;18.10;72.20;;;;;;4943953;28;20595;-77
2022/05/12 05:00:46;;;;;;;12.13;5.50;;;18.10;72.00;;;;;;4947212;28;20603;-76
2022/05/12 05:03:17;;;;;;;10.57;5.03;;;18.20;71.90;;;;;;4945169;28;20202;-79
2022/05/12 05:05:47;;;;;;;15.00;4.93;;;18.30;71.70;;;;;;4946715;29;20194;-77
2022/05/12 05:08:18;;;;;;;19.20;5.07;;;18.40;71.50;;;;;;4947147;28;20207;-78
2022/05/12 05:10:47;;;;;;;14.53;4.60;;;18.40;71.10;;;;;;4947086;28;20199;-77
2022/05/12 05:13:18;;;;;;;14.00;5.20;;;18.50;71.10;;;;;;4946136;29;20215;-77
2022/05/12 05:15:47;;;;;;;16.20;5.17;;;18.50;70.90;;;;;;4947553;28;20217;-77
2022/05/12 05:18:19;;;;;;;17.73;5.77;;;18.60;70.90;;;;;;4947265;28;20202;-77
2022/05/12 05:20:48;;;;;;;20.17;5.67;;;18.70;70.80;;;;;;4946480;28;20198;-77
2022/05/12 05:23:19;;;;;;;11.40;4.77;;;18.70;71.00;;;;;;4947073;28;20284;-76
2022/05/12 05:25:47;;;;;;;10.63;4.90;;;18.80;70.90;;;;;;4946745;29;20191;-76
2022/05/12 05:28:16;;;;;;;14.30;5.83;;;18.90;70.90;;;;;;4947262;28;20668;-77
2022/05/12 05:30:45;;;;;;;12.57;4.60;;;19.00;70.70;;;;;;4946524;28;20203;-76
2022/05/12 05:33:13;;;;;;;13.57;4.73;;;19.10;70.50;;;;;;4947145;29;20221;-77
2022/05/12 05:35:43;;;;;;;15.60;4.10;;;19.20;70.60;;;;;;4948066;29;20403;-76
2022/05/12 05:38:11;;;;;;;14.33;4.70;;;19.30;70.30;;;;;;4951143;28;20210;-78
2022/05/12 05:40:40;;;;;;;19.63;4.83;;;19.40;70.20;;;;;;4944147;28;20217;-77
2022/05/12 05:43:14;;;;;;;10.47;4.67;;;19.50;70.00;;;;;;4945534;29;20660;-76
2022/05/12 05:45:42;;;;;;;13.77;4.20;;;19.50;69.70;;;;;;4943511;28;20198;-77
2022/05/12 05:48:11;;;;;;;9.93;4.50;;;19.60;69.50;;;;;;4946711;28;20261;-77
2022/05/12 05:53:31;;;;;;;23.73;5.10;;;19.80;69.30;;;;;;4943014;29;20877;-76
2022/05/12 05:56:01;;;;;;;17.83;4.50;;;19.90;69.40;;;;;;4947607;29;20211;-76
2022/05/12 05:58:30;;;;;;;30.60;5.30;;;20.00;69.40;;;;;;4942544;29;20711;-77
2022/05/12 06:00:59;;;;;;;23.87;4.50;;;20.10;69.30;;;;;;4945591;28;20619;-76
2022/05/12 06:03:28;;;;;;;25.93;4.60;;;20.20;69.10;;;;;;4945747;28;20195;-77
2022/05/12 06:05:57;;;;;;;17.20;5.07;;;20.30;68.80;;;;;;4947143;28;20213;-75
2022/05/12 06:08:25;;;;;;;19.77;4.23;;;20.40;69.50;;;;;;4945252;28;20203;-77
2022/05/12 06:11:04;;;;;;;17.40;4.73;;;20.50;68.40;;;;;;4948121;28;20197;-77
2022/05/12 06:13:34;;;;;;;19.10;5.10;;;20.60;68.00;;;;;;4948826;28;20221;-77
2022/05/12 06:16:04;;;;;;;16.50;4.50;;;20.70;68.00;;;;;;4949930;29;20248;-77
2022/05/12 06:18:34;;;;;;;16.37;3.77;;;20.80;67.90;;;;;;4945858;29;20237;-76
2022/05/12 06:21:04;;;;;;;13.70;4.43;;;20.90;68.00;;;;;;4945104;28;20206;-75
2022/05/12 06:23:33;;;;;;;10.77;4.32;;;21.00;67.90;;;;;;4945460;28;20214;-77
2022/05/12 06:26:06;;;;;;;16.87;4.47;;;21.10;67.90;;;;;;4943260;29;20190;-74
2022/05/12 06:28:34;;;;;;;12.93;3.83;;;21.20;67.70;;;;;;4942929;28;20826;-77
2022/05/12 06:31:03;;;;;;;22.27;3.90;;;21.30;67.70;;;;;;4941036;29;20202;-77
2022/05/12 06:33:33;;;;;;;14.73;3.67;;;21.40;67.30;;;;;;4945551;28;20709;-77
2022/05/12 06:36:04;;;;;;;17.90;4.30;;;21.50;67.10;;;;;;4931454;28;20762;-77
2022/05/12 06:38:34;;;;;;;15.38;3.88;;;21.60;66.60;;;;;;4939702;28;20198;-79
2022/05/12 06:41:06;;;;;;;11.00;3.22;;;21.70;66.40;;;;;;4942837;29;20313;-78
2022/05/12 06:43:36;;;;;;;13.82;3.25;;;21.80;66.30;;;;;;4941435;29;20834;-78
2022/05/12 06:46:05;;;;;;;10.43;3.45;;;21.90;65.40;;;;;;4942489;28;20195;-77
2022/05/12 06:48:33;;;;;;;11.02;2.90;;;22.00;65.40;;;;;;4944085;28;20230;-78
2022/05/12 06:51:02;;;;;;;8.73;2.88;;;22.10;65.20;;;;;;4944975;28;20654;-78
2022/05/12 06:53:30;;;;;;;11.18;2.85;;;22.20;64.80;;;;;;4939494;28;20277;-78
2022/05/12 06:55:58;;;;;;;11.75;3.00;;;22.30;64.40;;;;;;4941287;28;20755;-76
2022/05/12 06:58:28;;;;;;;8.75;3.03;;;22.40;64.20;;;;;;4943230;28;20206;-77
2022/05/12 07:00:56;;;;;;;11.43;2.60;;;22.50;63.60;;;;;;4943160;28;20202;-78
2022/05/12 07:03:25;;;;;;;11.98;2.75;;;22.50;62.90;;;;;;4942713;29;20202;-78
2022/05/12 07:05:54;;;;;;;6.78;2.60;;;22.60;62.70;;;;;;4934641;29;20910;-76
2022/05/12 07:08:22;;;;;;;8.88;2.22;;;22.70;61.60;;;;;;4944918;29;20209;-78
2022/05/12 07:10:51;;;;;;;10.65;2.78;;;22.80;60.50;;;;;;4942337;28;20194;-77
2022/05/12 07:13:20;;;;;;;9.98;2.28;;;22.80;60.20;;;;;;4943014;28;20213;-77
2022/05/12 07:15:51;;;;;;;6.95;2.13;;;23.00;60.20;;;;;;4946397;28;20669;-78
2022/05/12 07:18:21;;;;;;;6.50;2.15;;;23.00;59.10;;;;;;4946286;28;20623;-77
2022/05/12 07:26:41;;;;;;;8.50;2.33;;;23.30;58.90;;;;;;4943357;29;20253;-74
2022/05/12 07:29:11;;;;;;;6.35;2.47;;;23.40;58.70;;;;;;4935608;28;20210;-78
2022/05/12 07:31:42;;;;;;;8.27;2.80;;;23.50;58.60;;;;;;4938173;28;20202;-78
2022/05/12 07:34:12;;;;;;;9.38;2.80;;;23.60;58.70;;;;;;4937885;29;20211;-78
2022/05/12 07:36:43;;;;;;;7.65;3.00;;;23.70;58.00;;;;;;4939887;29;20234;-80
2022/05/12 07:39:16;;;;;;;7.93;2.20;;;23.80;57.90;;;;;;4945840;28;20201;-77
2022/05/12 07:41:44;;;;;;;6.63;1.75;;;23.90;58.10;;;;;;4947820;28;20199;-76
2022/05/12 07:44:14;;;;;;;7.13;1.83;;;23.90;56.10;;;;;;4947214;28;20198;-76
2022/05/12 07:46:45;;;;;;;6.10;1.80;;;24.00;55.80;;;;;;4945998;28;20277;-77
2022/05/12 07:49:15;;;;;;;3.03;1.80;;;24.00;55.80;;;;;;4935242;29;20201;-77
2022/05/12 07:51:49;;;;;;;4.80;2.05;;;24.10;55.50;;;;;;4945357;28;20194;-77
2022/05/12 07:54:17;;;;;;;5.57;2.25;;;24.10;55.00;;;;;;4945177;29;20209;-79
2022/05/12 07:56:46;;;;;;;7.50;1.92;;;24.20;55.30;;;;;;4943180;29;20215;-78
2022/05/12 07:59:14;;;;;;;3.88;2.15;;;24.30;55.50;;;;;;4948412;29;20210;-78
2022/05/12 08:01:44;;;;;;;6.30;2.20;;;24.40;55.80;;;;;;4946239;28;20203;-77
2022/05/12 08:04:13;;;;;;;3.40;1.50;;;24.40;55.10;;;;;;4935694;28;20246;-77
2022/05/12 08:06:43;;;;;;;9.52;2.40;;;24.50;55.20;;;;;;4939092;28;20277;-77
2022/05/12 08:09:12;;;;;;;5.40;1.80;;;24.50;55.40;;;;;;4935709;29;20720;-76
2022/05/12 08:11:44;;;;;;;6.32;1.70;;;24.60;55.20;;;;;;4937740;29;20230;-76
2022/05/12 08:14:13;;;;;;;6.72;1.88;;;24.70;55.10;;;;;;4939166;29;20198;-78
2022/05/12 08:16:41;;;;;;;5.03;2.05;;;24.80;53.80;;;;;;4936238;28;20260;-78
2022/05/12 08:19:17;;;;;;;5.00;1.95;;;24.80;53.70;;;;;;4940123;29;20207;-78
2022/05/12 08:21:46;;;;;;;7.05;1.77;;;24.90;53.80;;;;;;4939429;29;20212;-77
2022/05/12 08:24:14;;;;;;;6.22;2.42;;;25.00;54.10;;;;;;4940276;29;20210;-77
2022/05/12 08:26:43;;;;;;;4.43;1.67;;;25.00;54.50;;;;;;4944882;28;20218;-79
2022/05/12 08:29:12;;;;;;;3.92;1.98;;;25.10;51.90;;;;;;4937078;29;20237;-76
2022/05/12 08:31:40;;;;;;;6.80;2.30;;;25.20;52.00;;;;;;4937061;29;20208;-78
2022/05/12 08:34:08;;;;;;;7.15;1.60;;;25.20;51.80;;;;;;4938091;29;20208;-76
2022/05/12 08:36:38;;;;;;;8.18;1.60;;;25.30;51.40;;;;;;4942540;28;20716;-77
2022/05/12 08:39:08;;;;;;;3.03;1.55;;;25.30;50.50;;;;;;4941254;29;20199;-78
2022/05/12 08:41:43;;;;;;;5.70;1.75;;;25.40;50.60;;;;;;4934986;29;20203;-78
2022/05/12 08:44:14;;;;;;;2.92;1.83;;;25.40;49.60;;;;;;4946389;28;20225;-77
2022/05/12 08:46:47;;;;;;;5.93;1.80;;;25.40;49.10;;;;;;4931037;28;20923;-80
2022/05/12 08:49:23;;;;;;;4.53;1.70;;;25.50;49.90;;;;;;4939923;28;20233;-76
2022/05/12 08:52:06;;;;;;;5.95;1.90;;;25.50;50.10;;;;;;4937048;28;20204;-75
2022/05/12 08:54:37;;;;;;;5.68;2.13;;;25.60;50.00;;;;;;4947681;28;20201;-76
2022/05/12 08:57:10;;;;;;;4.55;2.10;;;25.60;50.10;;;;;;4945393;28;20995;-77
2022/05/12 08:59:40;;;;;;;4.72;1.80;;;25.70;50.20;;;;;;4943664;28;20587;-76
2022/05/12 09:02:20;;;;;;;5.50;2.00;;;25.80;50.40;;;;;;4945231;28;20646;-76
2022/05/12 09:05:11;;;;;;;8.40;2.20;;;25.80;50.20;;;;;;4942647;29;20190;-76
2022/05/12 09:07:48;;;;;;;6.82;2.53;;;25.90;50.60;;;;;;4936874;29;20289;-76
2022/05/12 09:10:33;;;;;;;10.27;2.30;;;25.90;50.00;;;;;;4946490;29;20295;-75
2022/05/12 09:13:07;;;;;;;4.68;1.92;;;26.00;50.30;;;;;;4946397;28;20209;-76
2022/05/12 09:15:38;;;;;;;5.97;2.08;;;26.10;50.50;;;;;;4944878;28;20723;-75
2022/05/12 09:18:16;;;;;;;3.72;1.90;;;26.20;50.90;;;;;;4943828;28;20203;-75
2022/05/12 09:20:45;;;;;;;6.25;1.98;;;26.20;50.10;;;;;;4941318;28;20213;-76
2022/05/12 09:23:14;;;;;;;4.45;2.08;;;26.20;50.40;;;;;;4941185;28;20207;-76
2022/05/12 09:25:45;;;;;;;5.68;2.40;;;26.30;50.50;;;;;;4945197;28;20653;-77
2022/05/12 09:28:25;;;;;;;4.75;2.20;;;26.30;51.20;;;;;;4939493;28;20194;-77
2022/05/12 09:30:55;;;;;;;4.55;2.40;;;26.40;51.10;;;;;;4950738;29;20197;-76
2022/05/12 09:33:26;;;;;;;7.82;2.30;;;26.40;51.00;;;;;;4943166;28;20198;-77
2022/05/12 09:35:57;;;;;;;12.82;2.83;;;26.50;50.20;;;;;;4945465;29;20564;-76
2022/05/12 09:38:28;;;;;;;6.15;2.63;;;26.60;49.90;;;;;;4946979;29;20206;-76
2022/05/12 09:40:57;;;;;;;6.35;2.17;;;26.60;49.40;;;;;;4949124;28;20206;-73
2022/05/12 09:43:29;;;;;;;6.78;2.47;;;26.70;49.50;;;;;;4946188;28;20198;-77
2022/05/12 09:46:21;;;;;;;3.58;1.88;;;26.70;49.00;;;;;;4944705;29;20218;-77
2022/05/12 09:48:50;;;;;;;6.43;2.08;;;26.80;49.00;;;;;;4942370;29;20193;-76
2022/05/12 09:51:30;;;;;;;11.45;2.53;;;26.80;48.30;;;;;;4946169;28;20584;-78
2022/05/12 09:54:18;;;;;;;3.53;1.80;;;26.90;48.10;;;;;;4943381;29;20198;-76
2022/05/12 09:56:59;;;;;;;4.30;2.00;;;27.00;48.40;;;;;;4939597;28;20483;-75
2022/05/12 09:59:31;;;;;;;5.00;2.10;;;27.20;47.50;;;;;;4944752;29;20199;-77
2022/05/12 10:02:02;;;;;;;4.80;1.75;;;27.20;47.90;;;;;;4948577;28;20214;-77
2022/05/12 10:10:17;;;;;;;2.88;1.75;;;27.40;46.70;;;;;;4948794;29;20198;-77
2022/05/12 10:12:54;;;;;;;5.05;1.35;;;27.50;46.60;;;;;;4944697;28;20254;-78
2022/05/12 10:15:29;;;;;;;4.72;1.40;;;27.60;45.90;;;;;;4944248;29;20301;-76
2022/05/12 10:18:02;;;;;;;4.90;1.73;;;27.70;45.20;;;;;;4946060;28;20210;-76
2022/05/12 10:20:42;;;;;;;3.95;1.83;;;27.80;45.60;;;;;;4948129;29;20194;-76
2022/05/12 10:23:21;;;;;;;5.15;1.75;;;27.90;45.40;;;;;;4944521;28;20661;-75
2022/05/12 10:26:03;;;;;;;6.63;1.50;;;27.90;45.00;;;;;;4945946;28;20288;-77
2022/05/12 10:28:50;;;;;;;3.83;1.75;;;28.00;44.00;;;;;;4944767;28;20198;-79
2022/05/12 10:31:29;;;;;;;6.85;1.65;;;28.10;44.80;;;;;;4947818;29;20202;-78
2022/05/12 10:34:24;;;;;;;5.15;1.50;;;28.20;45.10;;;;;;4944212;28;20206;-80
2022/05/12 10:37:01;;;;;;;6.50;2.20;;;28.20;44.90;;;;;;4946053;28;20892;-77
2022/05/12 10:39:42;;;;;;;2.85;1.45;;;28.10;43.90;;;;;;4945472;28;20209;-76
2022/05/12 10:42:28;;;;;;;7.18;1.60;;;28.20;43.80;;;;;;4939951;29;20202;-76
2022/05/12 10:45:08;;;;;;;5.60;1.63;;;28.20;43.50;;;;;;4941823;29;20198;-78
2022/05/12 10:48:11;;;;;;;3.65;1.45;;;28.30;43.90;;;;;;4942633;29;20222;-77
2022/05/12 10:50:47;;;;;;;6.78;1.75;;;28.40;43.60;;;;;;4940408;29;20198;-79
2022/05/12 10:53:28;;;;;;;6.15;2.00;;;28.40;43.60;;;;;;4939265;29;20202;-77
2022/05/12 10:56:08;;;;;;;8.05;1.83;;;28.50;43.40;;;;;;4939189;28;20193;-77
2022/05/12 10:58:45;;;;;;;2.03;1.38;;;28.50;43.00;;;;;;4939707;29;20210;-78
2022/05/12 11:01:19;;;;;;;2.63;1.40;;;28.60;43.00;;;;;;4939565;29;20231;-79
2022/05/12 11:03:58;;;;;;;2.78;1.40;;;28.50;42.60;;;;;;4938871;29;20622;-78
2022/05/12 11:06:30;;;;;;;5.68;2.00;;;28.60;42.70;;;;;;4942779;28;20613;-79
2022/05/12 11:09:05;;;;;;;6.05;2.10;;;28.60;42.70;;;;;;4937432;28;20653;-78
2022/05/12 11:11:39;;;;;;;9.57;2.03;;;28.60;42.60;;;;;;4936193;28;20201;-75
2022/05/12 11:14:13;;;;;;;2.55;1.50;;;28.70;43.30;;;;;;4931124;28;20215;-74
2022/05/12 11:16:49;;;;;;;7.28;2.00;;;28.70;42.90;;;;;;4934759;29;20663;-77
2022/05/12 11:19:20;;;;;;;8.55;1.88;;;28.80;43.40;;;;;;4943234;28;20210;-78
2022/05/12 11:22:02;;;;;;;3.75;1.55;;;28.80;43.30;;;;;;4940209;28;20661;-76
2022/05/12 11:24:50;;;;;;;7.30;2.08;;;28.90;42.80;;;;;;4942695;29;20198;-77
2022/05/12 11:27:36;;;;;;;4.15;1.50;;;29.00;42.40;;;;;;4940330;29;20206;-77
2022/05/12 11:30:31;;;;;;;3.58;1.63;;;29.10;42.10;;;;;;4934049;29;20210;-79
2022/05/12 11:33:16;;;;;;;3.63;1.70;;;29.00;42.20;;;;;;4939811;28;20187;-76
2022/05/12 11:35:48;;;;;;;4.28;1.83;;;29.00;41.90;;;;;;4943044;28;20668;-77
2022/05/12 11:38:49;;;;;;;7.25;1.70;;;29.10;41.80;;;;;;4943393;28;20297;-77
2022/05/12 11:41:42;;;;;;;5.70;1.70;;;29.20;41.20;;;;;;4939271;28;20834;-78
2022/05/12 11:44:39;;;;;;;5.65;1.52;;;29.20;41.10;;;;;;4942390;28;20214;-78
2022/05/12 11:47:44;;;;;;;5.78;1.67;;;29.10;41.00;;;;;;4942589;28;20234;-77
2022/05/12 11:50:46;;;;;;;4.90;1.67;;;29.20;41.20;;;;;;4930349;29;20650;-77
2022/05/12 11:53:19;;;;;;;5.53;1.67;;;29.30;41.30;;;;;;4927404;29;20195;-78
2022/05/12 11:56:01;;;;;;;4.10;1.50;;;29.40;41.50;;;;;;4933563;29;20233;-76
2022/05/12 11:58:40;;;;;;;3.72;1.25;;;29.40;40.60;;;;;;4929748;29;20697;-77
2022/05/12 12:01:12;;;;;;;3.92;1.73;;;29.40;40.60;;;;;;4932105;29;20229;-77
2022/05/12 12:03:53;;;;;;;6.95;1.70;;;29.50;40.70;;;;;;4943782;28;20253;-76
2022/05/12 12:06:52;;;;;;;4.63;1.48;;;29.60;40.10;;;;;;4942020;29;20198;-78
2022/05/12 12:09:32;;;;;;;4.30;1.50;;;29.60;40.00;;;;;;4942115;28;20281;-78
2022/05/12 12:12:01;;;;;;;6.75;1.70;;;29.70;39.40;;;;;;4944180;28;20776;-77
2022/05/12 12:14:58;;;;;;;3.65;1.58;;;29.60;39.00;;;;;;4941300;28;20206;-80
2022/05/12 12:17:32;;;;;;;2.95;1.77;;;29.60;38.70;;;;;;4941070;28;20206;-83
2022/05/12 12:20:09;;;;;;;3.85;1.45;;;29.60;39.10;;;;;;4930804;28;20787;-78
2022/05/12 12:22:44;;;;;;;4.05;1.52;;;29.70;39.40;;;;;;4939221;28;21055;-76
2022/05/12 12:25:31;;;;;;;2.60;1.50;;;29.80;39.80;;;;;;4929523;28;20198;-79
2022/05/12 12:28:22;;;;;;;2.83;1.50;;;29.80;39.20;;;;;;4935224;29;20194;-78
2022/05/12 12:31:09;;;;;;;4.28;1.83;;;29.80;39.40;;;;;;4933579;28;20205;-78
2022/05/12 12:33:56;;;;;;;4.88;1.50;;;29.90;39.10;;;;;;4935533;28;20270;-78
2022/05/12 12:36:58;;;;;;;7.70;1.63;;;30.00;39.40;;;;;;4927938;29;20205;-79
2022/05/12 12:39:39;;;;;;;4.78;1.50;;;30.00;38.20;;;;;;4906881;28;20222;-79
2022/05/12 12:42:33;;;;;;;3.97;1.45;;;30.00;38.80;;;;;;4942572;29;20201;-81
2022/05/12 12:45:08;;;;;;;4.70;1.58;;;30.10;39.20;;;;;;4940340;29;20257;-77
2022/05/12 12:47:52;;;;;;;4.10;1.30;;;30.10;40.20;;;;;;4940081;28;20233;-80
2022/05/12 12:50:29;;;;;;;4.53;1.33;;;30.20;39.00;;;;;;4942913;28;20199;-77
2022/05/12 12:52:59;;;;;;;3.42;1.67;;;30.10;38.70;;;;;;4943999;29;20233;-77
2022/05/12 12:58:28;;;;;;;6.35;1.40;;;30.20;39.00;;;;;;4945499;29;20211;-78
2022/05/12 13:00:59;;;;;;;2.60;1.17;;;30.20;39.60;;;;;;4941113;29;20276;-82
2022/05/12 13:03:30;;;;;;;4.53;1.65;;;30.20;39.50;;;;;;4943928;28;20195;-77
2022/05/12 13:06:10;;;;;;;5.22;1.67;;;30.30;39.30;;;;;;4946012;28;20722;-81
2022/05/12 13:08:41;;;;;;;3.00;1.30;;;30.30;38.70;;;;;;4949065;28;20191;-79
2022/05/12 13:11:17;;;;;;;5.50;1.50;;;30.40;38.80;;;;;;4949163;28;20201;-75
2022/05/12 13:13:50;;;;;;;4.30;1.60;;;30.40;38.90;;;;;;4943328;28;20676;-77
2022/05/12 13:16:23;;;;;;;3.47;1.70;;;30.50;38.50;;;;;;4942666;29;20207;-80
2022/05/12 13:18:54;;;;;;;5.20;1.75;;;30.60;38.60;;;;;;4946734;29;20242;-79
2022/05/12 13:21:24;;;;;;;5.38;1.30;;;30.90;38.00;;;;;;4947238;28;20194;-78
2022/05/12 13:24:05;;;;;;;3.78;1.50;;;31.10;37.30;;;;;;4939353;29;20200;-77
2022/05/12 13:26:36;;;;;;;3.97;1.80;;;31.20;37.80;;;;;;4945545;28;20202;-82
2022/05/12 13:29:06;;;;;;;5.80;1.40;;;31.30;38.00;;;;;;4948171;29;20261;-76
2022/05/12 13:31:40;;;;;;;9.63;1.55;;;31.20;36.70;;;;;;4948870;28;20199;-80
2022/05/12 13:34:24;;;;;;;4.93;1.40;;;31.20;36.60;;;;;;4944571;28;20195;-79